Aurora, Illinois
Current Conditions -  °F | °C
As of 3:52 PM on Wednesday 28 Jan 2015 (Local Time) from KARR Reporting Station
Clear Clear  
Wind Chill: 23°   Ceiling: Unl
Heat Index: 34°   Visibility: 7mi
Dew Point: 23°   Wind: 20mph
Humidity: 64%   Direction: 130°SE
Pressure: 30.03"   Gusts: NA
Location:  41.76°N, 88.31°W
Report Text: KARR 282152Z 13017KT 7SM CLR 01/M05 A3003 RMK AO2 SLP178 T00111050
Loading
Personal Weather Stations






























Interactive Weather Map New forecast layout! Learn more

10-Day Weather Forecast

Advertisements
Track Severe Weather on mobile